createdAt,value
2022-12-13T00:02:00.223Z,0.93
2022-12-13T00:04:27.316Z,0.91
2022-12-13T00:06:54.340Z,0.98
2022-12-13T00:09:21.898Z,0.96
2022-12-13T00:11:50.214Z,0.95
2022-12-13T00:14:17.639Z,0.91
2022-12-13T00:16:49.344Z,0.87
2022-12-13T00:19:18.140Z,0.86
2022-12-13T00:21:45.500Z,0.90
2022-12-13T00:24:12.647Z,0.98
2022-12-13T00:26:39.901Z,0.91
2022-12-13T00:29:08.027Z,0.86
2022-12-13T00:31:59.543Z,0.81
2022-12-13T00:34:23.476Z,0.74
2022-12-13T00:36:50.745Z,0.81
2022-12-13T00:39:19.297Z,0.77
2022-12-13T00:41:47.083Z,0.77
2022-12-13T00:44:14.861Z,0.75
2022-12-13T00:46:42.557Z,0.76
2022-12-13T00:49:10.818Z,0.76
2022-12-13T00:51:37.817Z,0.78
2022-12-13T00:54:05.509Z,0.89
2022-12-13T00:56:33.962Z,0.84
2022-12-13T00:59:01.430Z,0.80
2022-12-13T01:01:32.674Z,0.81
2022-12-13T01:04:02.481Z,0.83
2022-12-13T01:06:41.566Z,0.75
2022-12-13T01:09:19.743Z,0.82
2022-12-13T01:11:47.424Z,0.83
2022-12-13T01:14:16.495Z,0.74
2022-12-13T01:16:43.671Z,0.71
2022-12-13T01:19:10.653Z,0.66
2022-12-13T01:21:37.815Z,0.75
2022-12-13T01:24:06.779Z,0.72
2022-12-13T01:26:34.456Z,0.64
2022-12-13T01:29:01.576Z,0.72
2022-12-13T01:31:28.699Z,0.67
2022-12-13T01:33:55.696Z,0.73
2022-12-13T01:36:27.705Z,0.72
2022-12-13T01:38:59.408Z,0.77
2022-12-13T01:41:28.874Z,0.78
2022-12-13T01:44:05.032Z,0.72
2022-12-13T01:46:35.188Z,0.72
2022-12-13T01:49:19.732Z,0.83
2022-12-13T01:52:02.979Z,0.80
2022-12-13T01:54:37.579Z,0.83
2022-12-13T01:57:09.169Z,0.80
2022-12-13T01:59:39.498Z,0.84
2022-12-13T02:02:09.982Z,0.82
2022-12-13T02:04:54.398Z,0.74
2022-12-13T02:07:28.204Z,0.69
2022-12-13T02:09:59.078Z,0.74
2022-12-13T02:12:33.972Z,0.74
2022-12-13T02:15:14.580Z,0.96
2022-12-13T02:18:19.585Z,1.14
2022-12-13T02:21:31.406Z,0.84
2022-12-13T02:24:25.285Z,0.78
2022-12-13T02:27:30.338Z,0.79
2022-12-13T02:30:26.954Z,0.90
2022-12-13T02:33:22.144Z,0.97
2022-12-13T02:35:52.951Z,0.99
2022-12-13T02:39:00.674Z,0.88
2022-12-13T02:41:38.082Z,0.92
2022-12-13T02:44:22.901Z,0.85
2022-12-13T02:47:07.014Z,0.85
2022-12-13T02:49:47.102Z,0.84
2022-12-13T02:52:22.241Z,0.83
2022-12-13T02:54:49.957Z,0.84
2022-12-13T02:57:40.601Z,0.90
2022-12-13T03:00:51.133Z,0.85
2022-12-13T03:03:38.443Z,0.91
2022-12-13T03:06:34.049Z,0.88
2022-12-13T03:09:25.540Z,0.89
2022-12-13T03:12:29.274Z,0.91
2022-12-13T03:15:18.786Z,0.99
2022-12-13T03:18:07.013Z,0.92
2022-12-13T03:20:34.102Z,0.97
2022-12-13T03:23:01.161Z,0.90
2022-12-13T03:25:32.975Z,0.91
2022-12-13T03:28:02.502Z,1.00
2022-12-13T03:30:34.402Z,0.97
2022-12-13T03:33:02.020Z,0.96
2022-12-13T03:35:34.224Z,0.89
2022-12-13T03:38:03.107Z,0.97
2022-12-13T03:40:31.788Z,0.94
2022-12-13T03:42:58.757Z,1.04
2022-12-13T03:45:25.847Z,0.96
2022-12-13T03:47:52.861Z,0.99
2022-12-13T03:50:26.708Z,1.12
2022-12-13T03:53:02.418Z,1.04
2022-12-13T03:55:29.964Z,1.05
2022-12-13T03:57:57.084Z,1.05
2022-12-13T04:00:24.229Z,0.99
2022-12-13T04:02:51.277Z,1.03
2022-12-13T04:05:18.560Z,1.01
2022-12-13T04:07:48.338Z,0.97
2022-12-13T04:10:26.103Z,0.99
2022-12-13T04:13:13.018Z,0.99
2022-12-13T04:15:40.604Z,0.96
2022-12-13T04:18:07.576Z,0.93
2022-12-13T04:20:34.542Z,0.93
2022-12-13T04:23:01.584Z,0.97
2022-12-13T04:25:38.716Z,0.98
2022-12-13T04:28:06.600Z,0.97
2022-12-13T04:30:34.765Z,0.97
2022-12-13T04:33:02.087Z,0.97
2022-12-13T04:35:29.203Z,1.00
2022-12-13T04:37:57.389Z,1.00
2022-12-13T04:40:24.494Z,0.96
2022-12-13T04:42:54.303Z,1.01
2022-12-13T04:45:22.591Z,1.08
2022-12-13T04:47:49.978Z,1.06
2022-12-13T04:50:17.360Z,1.03
2022-12-13T04:52:45.023Z,1.04
2022-12-13T04:55:12.286Z,1.07
2022-12-13T04:57:39.919Z,1.10
2022-12-13T05:00:11.112Z,1.07
2022-12-13T05:02:38.104Z,1.02
2022-12-13T05:05:05.671Z,1.13
2022-12-13T05:07:32.610Z,1.01
2022-12-13T05:09:59.585Z,1.03
2022-12-13T05:12:26.628Z,1.02
2022-12-13T05:14:54.156Z,1.02
2022-12-13T05:17:21.588Z,0.92
2022-12-13T05:19:48.705Z,0.91
2022-12-13T05:22:20.469Z,0.85
2022-12-13T05:24:48.457Z,0.88
2022-12-13T05:27:25.864Z,0.87
2022-12-13T05:30:02.923Z,0.82
2022-12-13T05:32:43.753Z,0.84
2022-12-13T05:35:23.034Z,0.85
2022-12-13T05:37:55.263Z,0.91
2022-12-13T05:40:28.508Z,0.84
2022-12-13T05:43:00.959Z,0.90
2022-12-13T05:45:32.752Z,0.82
2022-12-13T05:48:00.121Z,0.90
2022-12-13T05:50:27.163Z,0.91
2022-12-13T05:52:54.141Z,0.85
2022-12-13T05:55:21.211Z,0.90
2022-12-13T05:57:50.106Z,0.83
2022-12-13T06:00:30.425Z,0.80
2022-12-13T06:03:01.289Z,0.83
2022-12-13T06:05:30.317Z,0.79
2022-12-13T06:07:58.133Z,0.74
2022-12-13T06:10:35.166Z,0.71
2022-12-13T06:13:21.498Z,0.77
2022-12-13T06:16:01.525Z,0.74
2022-12-13T06:18:31.553Z,0.83
2022-12-13T06:21:01.764Z,0.69
2022-12-13T06:23:30.827Z,0.72
2022-12-13T06:25:58.189Z,0.72
2022-12-13T06:28:25.121Z,0.78
2022-12-13T06:30:52.520Z,0.77
2022-12-13T06:33:23.488Z,0.71
2022-12-13T06:35:52.727Z,0.64
2022-12-13T06:38:31.571Z,0.60
2022-12-13T06:41:14.197Z,0.56
2022-12-13T06:43:48.786Z,0.73
2022-12-13T06:46:16.160Z,0.61
2022-12-13T06:48:43.380Z,0.65
2022-12-13T06:51:10.821Z,0.66
2022-12-13T06:53:40.250Z,0.54
2022-12-13T06:56:10.755Z,0.62
2022-12-13T06:58:38.740Z,0.52
2022-12-13T07:01:24.681Z,0.54
2022-12-13T07:03:55.900Z,0.55
2022-12-13T07:06:25.854Z,0.63
2022-12-13T07:08:56.902Z,0.60
2022-12-13T07:11:27.495Z,0.61
2022-12-13T07:13:55.417Z,0.52
2022-12-13T07:16:23.962Z,0.53
2022-12-13T07:19:01.347Z,0.58
2022-12-13T07:21:30.606Z,0.57
2022-12-13T07:23:57.707Z,0.58
2022-12-13T07:26:25.380Z,0.70
2022-12-13T07:28:55.377Z,0.68
2022-12-13T07:31:24.579Z,0.70
2022-12-13T07:33:52.473Z,0.62
2022-12-13T07:36:23.299Z,0.55
2022-12-13T07:38:57.723Z,0.47
2022-12-13T07:41:26.778Z,0.72
2022-12-13T07:43:55.989Z,0.73
2022-12-13T07:46:32.636Z,0.69
2022-12-13T07:49:03.131Z,0.73
2022-12-13T07:51:30.377Z,0.76
2022-12-13T07:53:58.233Z,0.70
2022-12-13T07:56:25.190Z,0.65
2022-12-13T07:58:52.138Z,0.80
2022-12-13T08:01:19.225Z,0.68
2022-12-13T08:03:48.976Z,0.70
2022-12-13T08:06:15.953Z,0.85
2022-12-13T08:08:43.086Z,0.93
2022-12-13T08:11:13.268Z,0.74
2022-12-13T08:13:41.062Z,0.75
2022-12-13T08:16:27.429Z,0.79
2022-12-13T08:19:02.527Z,0.83
2022-12-13T08:21:56.865Z,0.81
2022-12-13T08:24:27.059Z,0.85
2022-12-13T08:26:55.149Z,0.90
2022-12-13T08:29:32.965Z,0.78
2022-12-13T08:32:07.297Z,0.83
2022-12-13T08:34:34.321Z,0.85
2022-12-13T08:37:03.556Z,0.95
2022-12-13T08:39:37.400Z,0.94
2022-12-13T08:42:16.705Z,0.80
2022-12-13T08:44:50.893Z,0.86
2022-12-13T08:47:22.953Z,0.88
2022-12-13T08:50:01.819Z,0.88
2022-12-13T08:52:40.244Z,0.88
2022-12-13T08:55:13.551Z,0.86
2022-12-13T08:57:42.431Z,0.87
2022-12-13T09:00:19.358Z,0.89
2022-12-13T09:02:46.371Z,0.92
2022-12-13T09:05:13.689Z,0.93
2022-12-13T09:08:02.892Z,0.90
2022-12-13T09:10:38.638Z,0.90
2022-12-13T09:13:11.884Z,1.02
2022-12-13T09:15:45.972Z,0.98
2022-12-13T09:18:15.157Z,0.88
2022-12-13T09:20:42.808Z,0.88
2022-12-13T09:23:14.027Z,0.88
2022-12-13T09:26:05.929Z,0.94
2022-12-13T09:28:35.359Z,1.15
2022-12-13T09:31:17.840Z,1.21
2022-12-13T09:33:46.002Z,1.43
2022-12-13T09:36:17.317Z,1.48
2022-12-13T09:38:45.381Z,1.36
2022-12-13T09:41:34.121Z,1.51
2022-12-13T09:44:32.583Z,1.47
2022-12-13T09:47:13.139Z,1.40
2022-12-13T09:49:52.023Z,1.44
2022-12-13T09:52:22.549Z,1.48
2022-12-13T09:54:53.979Z,1.47
2022-12-13T09:57:32.743Z,1.58
2022-12-13T10:00:07.251Z,1.53
2022-12-13T10:02:58.752Z,1.40
2022-12-13T10:05:39.644Z,1.40
2022-12-13T10:08:15.101Z,1.43
2022-12-13T10:10:43.922Z,1.37
2022-12-13T10:13:49.354Z,1.31
2022-12-13T10:16:37.427Z,1.17
2022-12-13T10:19:39.153Z,1.16
2022-12-13T10:22:13.491Z,1.24
2022-12-13T10:25:04.424Z,1.28
2022-12-13T10:27:48.940Z,1.33
2022-12-13T10:30:28.856Z,1.38
2022-12-13T10:33:02.734Z,1.59
2022-12-13T10:35:40.899Z,1.55
2022-12-13T10:38:07.801Z,1.58
2022-12-13T10:40:45.376Z,1.49
2022-12-13T10:43:23.662Z,1.42
2022-12-13T10:49:59.050Z,1.58
2022-12-13T10:52:43.081Z,1.87
2022-12-13T10:55:28.722Z,2.12
2022-12-13T10:58:03.523Z,2.15
2022-12-13T11:00:37.786Z,2.24
2022-12-13T11:03:05.942Z,2.30
2022-12-13T11:05:35.773Z,2.39
2022-12-13T11:08:27.959Z,2.38
2022-12-13T11:11:04.538Z,2.29
2022-12-13T11:13:51.155Z,2.09
2022-12-13T11:16:27.727Z,2.01
2022-12-13T11:18:59.484Z,1.72
2022-12-13T11:21:31.083Z,1.54
2022-12-13T11:24:05.922Z,1.74
2022-12-13T11:26:38.056Z,1.67
2022-12-13T11:29:35.245Z,1.64
2022-12-13T11:32:31.373Z,1.56
2022-12-13T11:35:38.581Z,1.46
2022-12-13T11:38:42.734Z,1.55
2022-12-13T11:41:42.364Z,1.53
2022-12-13T11:44:29.719Z,1.55
2022-12-13T11:47:00.955Z,1.66
2022-12-13T11:49:40.820Z,1.80
2022-12-13T11:52:16.498Z,1.83
2022-12-13T11:54:54.582Z,1.97
2022-12-13T11:57:27.409Z,2.37
2022-12-13T12:00:17.895Z,2.58
2022-12-13T12:03:35.026Z,2.73
2022-12-13T12:06:32.539Z,2.79
2022-12-13T12:09:07.456Z,2.99
2022-12-13T12:11:41.919Z,3.15
2022-12-13T12:14:56.318Z,3.51
2022-12-13T12:17:37.733Z,3.59
2022-12-13T12:20:25.245Z,3.66
2022-12-13T12:23:27.928Z,3.76
2022-12-13T12:26:15.347Z,3.86
2022-12-13T12:29:17.747Z,3.97
2022-12-13T12:32:28.638Z,4.02
2022-12-13T12:35:26.830Z,3.76
2022-12-13T12:38:22.963Z,3.58
2022-12-13T12:41:24.791Z,3.51
2022-12-13T12:44:16.728Z,3.54
2022-12-13T12:47:28.610Z,3.44
2022-12-13T12:50:24.287Z,3.44
2022-12-13T12:53:23.685Z,3.19
2022-12-13T12:56:36.219Z,2.96
2022-12-13T12:59:58.213Z,2.76
2022-12-13T13:03:06.814Z,2.57
2022-12-13T13:06:09.551Z,2.48
2022-12-13T13:08:59.207Z,2.49
2022-12-13T13:11:33.761Z,2.52
2022-12-13T13:14:36.702Z,2.54
2022-12-13T13:17:25.206Z,2.35
2022-12-13T13:20:17.568Z,2.31
2022-12-13T13:22:50.277Z,2.15
2022-12-13T13:25:35.210Z,2.05
2022-12-13T13:28:17.337Z,1.91
2022-12-13T13:31:05.992Z,1.82
2022-12-13T13:33:51.455Z,1.77
2022-12-13T13:36:41.655Z,1.72
2022-12-13T13:39:36.437Z,1.60
2022-12-13T13:42:18.189Z,1.72
2022-12-13T13:44:53.541Z,1.48
2022-12-13T13:47:20.437Z,1.42
2022-12-13T13:50:33.416Z,1.38
2022-12-13T13:53:31.191Z,1.39
2022-12-13T13:56:25.223Z,1.36
2022-12-13T13:59:38.348Z,1.25
2022-12-13T14:03:33.338Z,1.17
2022-12-13T14:06:36.416Z,1.06
2022-12-13T14:09:51.886Z,1.01
2022-12-13T14:13:13.393Z,0.93
2022-12-13T14:16:36.345Z,0.75
2022-12-13T14:19:18.103Z,0.57
2022-12-13T14:22:11.379Z,0.49
2022-12-13T14:25:02.922Z,0.48
2022-12-13T14:27:54.739Z,0.36
2022-12-13T14:30:27.856Z,0.27
2022-12-13T14:32:57.132Z,0.30
2022-12-13T14:35:33.637Z,0.63
2022-12-13T14:38:08.115Z,1.22
2022-12-13T14:40:47.328Z,1.03
2022-12-13T14:43:35.097Z,0.70
2022-12-13T14:46:06.241Z,0.44
2022-12-13T14:48:49.185Z,0.33
2022-12-13T14:51:38.430Z,0.24
2022-12-13T14:54:07.913Z,0.20
2022-12-13T14:56:35.003Z,0.09
2022-12-13T14:59:11.994Z,0.03
2022-12-13T15:01:40.477Z,0.10
2022-12-13T15:04:39.707Z,0.08
2022-12-13T15:07:06.926Z,0.14
2022-12-13T15:09:44.401Z,0.13
2022-12-13T15:12:25.170Z,0.13
2022-12-13T15:15:23.339Z,0.06
2022-12-13T15:18:04.361Z,0.05
2022-12-13T15:20:33.618Z,-0.03
2022-12-13T15:23:12.092Z,-0.02
2022-12-13T15:25:39.542Z,-0.08
2022-12-13T15:28:08.056Z,-0.07
2022-12-13T15:30:36.541Z,-0.10
2022-12-13T15:33:34.178Z,-0.10
2022-12-13T15:36:03.672Z,-0.13
2022-12-13T15:38:30.862Z,-0.07
2022-12-13T15:40:59.297Z,-0.11
2022-12-13T15:43:37.322Z,-0.08
2022-12-13T15:46:07.968Z,-0.18
2022-12-13T15:48:40.300Z,-0.24
2022-12-13T15:51:29.634Z,-0.22
2022-12-13T15:54:11.397Z,-0.29
2022-12-13T15:57:14.303Z,-0.34
2022-12-13T15:59:44.167Z,-0.38
2022-12-13T16:02:24.260Z,-0.37
2022-12-13T16:04:51.910Z,-0.39
2022-12-13T16:07:37.709Z,-0.40
2022-12-13T16:10:06.843Z,-0.46
2022-12-13T16:12:47.624Z,-0.46
2022-12-13T16:15:28.564Z,-0.45
2022-12-13T16:18:26.729Z,-0.55
2022-12-13T16:20:55.186Z,-0.52
2022-12-13T16:23:27.203Z,-0.45
2022-12-13T16:25:55.088Z,-0.48
2022-12-13T16:28:25.964Z,-0.42
2022-12-13T16:30:53.327Z,-0.37
2022-12-13T16:33:26.300Z,-0.13
2022-12-13T16:35:56.086Z,-0.30
2022-12-13T16:38:26.858Z,-0.48
2022-12-13T16:40:59.377Z,-0.54
2022-12-13T16:43:33.907Z,-0.59
2022-12-13T16:47:16.198Z,-0.64
2022-12-13T16:48:51.781Z,-0.62
2022-12-13T16:51:19.354Z,-0.54
2022-12-13T16:53:46.897Z,-0.60
2022-12-13T16:56:16.504Z,-0.64
2022-12-13T16:58:49.666Z,-0.63
2022-12-13T17:01:20.346Z,-0.63
2022-12-13T17:03:48.013Z,-0.68
2022-12-13T17:06:18.859Z,-0.65
2022-12-13T17:08:45.820Z,-0.76
2022-12-13T17:11:17.717Z,-0.71
2022-12-13T17:13:47.567Z,-0.69
2022-12-13T17:16:14.905Z,-0.71
2022-12-13T17:18:42.224Z,-0.73
2022-12-13T17:21:11.047Z,-0.76
2022-12-13T17:23:38.183Z,-0.84
2022-12-13T17:26:10.847Z,-0.86
2022-12-13T17:28:38.113Z,-0.80
2022-12-13T17:31:13.589Z,-0.73
2022-12-13T17:33:41.886Z,-0.81
2022-12-13T17:36:11.520Z,-0.83
2022-12-13T17:38:45.535Z,-0.83
2022-12-13T17:41:16.306Z,-0.75
2022-12-13T17:43:44.297Z,-0.81
2022-12-13T17:46:16.433Z,-0.91
2022-12-13T17:48:45.756Z,-0.90
2022-12-13T17:51:14.274Z,-0.95
2022-12-13T17:53:43.785Z,-0.98
2022-12-13T17:56:15.219Z,-0.99
2022-12-13T17:58:42.863Z,-1.01
2022-12-13T18:01:22.844Z,-0.98
2022-12-13T18:03:54.085Z,-1.06
2022-12-13T18:06:21.649Z,-1.03
2022-12-13T18:08:48.732Z,-1.01
2022-12-13T18:11:34.626Z,-0.98
2022-12-13T18:14:07.469Z,-1.06
2022-12-13T18:16:38.402Z,-1.06
2022-12-13T18:19:10.626Z,-1.05
2022-12-13T18:21:37.761Z,-0.97
2022-12-13T18:24:06.660Z,-1.01
2022-12-13T18:26:34.402Z,-1.04
2022-12-13T18:29:02.331Z,-1.03
2022-12-13T18:31:29.386Z,-1.01
2022-12-13T18:33:56.602Z,-1.02
2022-12-13T18:36:25.383Z,-0.95
2022-12-13T18:38:52.925Z,-1.08
2022-12-13T18:41:24.052Z,-1.04
2022-12-13T18:44:03.750Z,-1.02
2022-12-13T18:46:35.227Z,-1.00
2022-12-13T18:49:03.175Z,-1.06
2022-12-13T18:51:30.408Z,-1.00
2022-12-13T18:53:57.428Z,-0.98
2022-12-13T18:56:25.898Z,-1.01
2022-12-13T18:58:53.529Z,-1.03
2022-12-13T19:01:22.924Z,-0.97
2022-12-13T19:03:50.993Z,-1.03
2022-12-13T19:06:22.120Z,-0.97
2022-12-13T19:08:51.799Z,-1.06
2022-12-13T19:11:20.035Z,-1.05
2022-12-13T19:13:47.766Z,-1.17
2022-12-13T19:16:18.909Z,-1.24
2022-12-13T19:18:46.702Z,-1.21
2022-12-13T19:21:17.550Z,-1.23
2022-12-13T19:23:48.354Z,-1.26
2022-12-13T19:26:19.144Z,-1.29
2022-12-13T19:28:46.738Z,-1.28
2022-12-13T19:31:15.777Z,-1.24
2022-12-13T19:33:43.702Z,-1.22
2022-12-13T19:36:11.534Z,-1.07
2022-12-13T19:38:39.966Z,-1.08
2022-12-13T19:41:14.466Z,-1.19
2022-12-13T19:43:43.824Z,-1.30
2022-12-13T19:46:12.515Z,-1.31
2022-12-13T19:48:39.499Z,-1.36
2022-12-13T19:51:09.868Z,-1.38
2022-12-13T19:53:40.798Z,-1.39
2022-12-13T19:56:14.025Z,-1.32
2022-12-13T19:58:41.102Z,-1.35
2022-12-13T20:01:08.648Z,-1.41
2022-12-13T20:03:38.516Z,-1.21
2022-12-13T20:06:08.932Z,-1.29
2022-12-13T20:08:36.037Z,-1.36
2022-12-13T20:11:17.099Z,-1.36
2022-12-13T20:13:44.076Z,-1.44
2022-12-13T20:16:19.917Z,-1.46
2022-12-13T20:18:48.083Z,-1.51
2022-12-13T20:21:15.812Z,-1.46
2022-12-13T20:23:48.967Z,-1.52
2022-12-13T20:26:25.701Z,-1.53
2022-12-13T20:28:52.920Z,-1.58
2022-12-13T20:31:23.885Z,-1.59
2022-12-13T20:33:58.708Z,-1.53
2022-12-13T20:36:28.719Z,-1.58
2022-12-13T20:38:59.580Z,-1.62
2022-12-13T20:41:29.991Z,-1.66
2022-12-13T20:43:59.192Z,-1.71
2022-12-13T20:46:27.662Z,-1.74
2022-12-13T20:48:56.259Z,-1.83
2022-12-13T20:51:26.538Z,-1.82
2022-12-13T20:53:54.859Z,-1.75
2022-12-13T20:56:28.070Z,-1.91
2022-12-13T20:58:55.842Z,-2.01
2022-12-13T21:01:30.636Z,-2.05
2022-12-13T21:04:00.466Z,-2.03
2022-12-13T21:06:32.925Z,-2.08
2022-12-13T21:09:02.806Z,-2.06
2022-12-13T21:11:35.277Z,-2.05
2022-12-13T21:14:21.297Z,-2.10
2022-12-13T21:17:09.709Z,-2.15
2022-12-13T21:19:40.235Z,-2.20
2022-12-13T21:22:07.903Z,-2.21
2022-12-13T21:24:34.835Z,-2.26
2022-12-13T21:27:01.916Z,-2.36
2022-12-13T21:29:28.973Z,-2.33
2022-12-13T21:31:56.210Z,-2.38
2022-12-13T21:34:23.521Z,-2.41
2022-12-13T21:36:52.762Z,-2.52
2022-12-13T21:39:31.013Z,-2.49
2022-12-13T21:41:58.542Z,-2.53
2022-12-13T21:44:25.612Z,-2.55
2022-12-13T21:47:11.903Z,-2.62
2022-12-13T21:49:39.679Z,-2.65
2022-12-13T21:52:06.603Z,-2.65
2022-12-13T21:54:33.575Z,-2.72
2022-12-13T21:57:19.175Z,-2.74
2022-12-13T21:59:46.309Z,-2.73
2022-12-13T22:02:17.758Z,-2.76
2022-12-13T22:04:51.667Z,-2.73
2022-12-13T22:07:30.006Z,-2.72
2022-12-13T22:09:58.752Z,-2.78
2022-12-13T22:12:38.832Z,-2.84
2022-12-13T22:15:12.413Z,-2.87
2022-12-13T22:17:40.603Z,-2.83
2022-12-13T22:20:13.794Z,-2.85
2022-12-13T22:22:42.578Z,-2.93
2022-12-13T22:25:10.444Z,-2.98
2022-12-13T22:27:37.620Z,-2.97
2022-12-13T22:30:05.538Z,-3.00
2022-12-13T22:32:34.041Z,-2.97
2022-12-13T22:35:01.065Z,-2.97
2022-12-13T22:37:28.042Z,-3.00
2022-12-13T22:39:55.074Z,-3.01
2022-12-13T22:42:22.468Z,-3.03
2022-12-13T22:44:49.505Z,-3.08
2022-12-13T22:47:16.838Z,-3.12
2022-12-13T22:49:43.848Z,-3.15
2022-12-13T22:52:10.867Z,-3.10
2022-12-13T22:54:37.845Z,-3.17
2022-12-13T22:57:04.898Z,-3.08
2022-12-13T22:59:31.924Z,-3.14
2022-12-13T23:02:02.593Z,-3.15
2022-12-13T23:04:31.874Z,-3.18
2022-12-13T23:06:58.976Z,-3.08
2022-12-13T23:09:25.978Z,-3.14
2022-12-13T23:12:11.791Z,-3.16
2022-12-13T23:14:38.788Z,-3.23
2022-12-13T23:17:06.177Z,-3.19
2022-12-13T23:19:52.908Z,-3.28
2022-12-13T23:22:22.930Z,-3.33
2022-12-13T23:24:51.083Z,-3.26
2022-12-13T23:27:19.959Z,-3.31
2022-12-13T23:29:46.967Z,-3.31
2022-12-13T23:32:14.212Z,-3.32
2022-12-13T23:34:41.292Z,-3.36
2022-12-13T23:37:08.291Z,-3.38
2022-12-13T23:39:35.222Z,-3.37
2022-12-13T23:42:02.254Z,-3.41
2022-12-13T23:44:29.199Z,-3.42
2022-12-13T23:46:56.131Z,-3.47
2022-12-13T23:49:23.222Z,-3.43
2022-12-13T23:51:50.159Z,-3.43
2022-12-13T23:54:19.529Z,-3.42
2022-12-13T23:56:47.578Z,-3.52
2022-12-13T23:59:14.565Z,-3.51
